Time;durP1;ratioP1;P1;durP2;ratioP2;P2;SDS_P1;SDS_P2;PMS_P1;PMS_P2;Temp;Humidity;BMP_temperature;BMP_pressure;BME280_temperature;BME280_humidity;BME280_pressure;Samples;Min_cycle;Max_cycle;Signal;HPM_P1;HPM_P2
2022/09/28 00:00:26;;;;;;;0.60;0.60;;;9.10;99.90;;;;;;5041835;28;20726;-81
2022/09/28 00:02:56;;;;;;;1.27;0.70;;;9.10;99.90;;;;;;5034975;28;21057;-81
2022/09/28 00:05:22;;;;;;;0.77;0.47;;;9.10;99.90;;;;;;5020309;28;20640;-81
2022/09/28 00:07:49;;;;;;;1.80;0.70;;;9.20;99.90;;;;;;5039550;28;20633;-81
2022/09/28 00:10:16;;;;;;;0.30;0.30;;;9.30;99.90;;;;;;5040735;28;20615;-82
2022/09/28 00:12:43;;;;;;;1.23;0.77;;;9.20;99.90;;;;;;5040863;28;21267;-81
2022/09/28 00:15:10;;;;;;;0.40;0.30;;;9.20;99.90;;;;;;5042061;28;20620;-81
2022/09/28 00:17:37;;;;;;;0.80;0.53;;;9.20;99.90;;;;;;5041408;28;20627;-81
2022/09/28 00:20:06;;;;;;;0.80;0.40;;;9.20;99.90;;;;;;5040013;28;20623;-82
2022/09/28 00:22:33;;;;;;;1.93;0.60;;;9.20;99.90;;;;;;5040408;28;21239;-81
2022/09/28 00:24:59;;;;;;;0.93;0.40;;;9.20;99.90;;;;;;5040022;28;20640;-81
2022/09/28 00:27:26;;;;;;;0.77;0.20;;;9.20;99.90;;;;;;5039358;28;20618;-82
2022/09/28 00:29:53;;;;;;;0.40;0.30;;;9.30;99.90;;;;;;5039085;28;20971;-81
2022/09/28 00:32:23;;;;;;;0.30;0.20;;;9.30;99.90;;;;;;5038111;28;20674;-82
2022/09/28 00:34:51;;;;;;;0.77;0.43;;;9.30;99.90;;;;;;5039220;28;20766;-81
2022/09/28 00:37:20;;;;;;;0.50;0.50;;;9.30;99.90;;;;;;5041464;28;21128;-81
2022/09/28 00:39:48;;;;;;;2.47;0.63;;;9.30;99.90;;;;;;5040113;28;20687;-81
2022/09/28 00:42:17;;;;;;;0.80;0.80;;;9.20;99.90;;;;;;5039383;28;20703;-83
2022/09/28 00:44:48;;;;;;;0.70;0.40;;;9.20;99.90;;;;;;5038666;28;20631;-81
2022/09/28 00:47:36;;;;;;;0.40;0.30;;;9.20;99.90;;;;;;5040099;28;21065;-83
2022/09/28 00:50:08;;;;;;;0.40;0.23;;;9.20;99.90;;;;;;5040892;28;20640;-81
2022/09/28 00:52:40;;;;;;;0.30;0.30;;;9.20;99.90;;;;;;5037589;28;21182;-81
2022/09/28 00:55:12;;;;;;;0.77;0.73;;;9.30;99.90;;;;;;5039647;28;20622;-81
2022/09/28 00:57:43;;;;;;;1.47;0.37;;;9.30;99.90;;;;;;5041196;28;20692;-82
2022/09/28 01:00:11;;;;;;;0.50;0.50;;;9.30;99.90;;;;;;5022218;28;20624;-82
2022/09/28 01:02:38;;;;;;;1.13;0.30;;;9.30;99.90;;;;;;5024515;28;20674;-80
2022/09/28 01:05:07;;;;;;;1.77;0.40;;;9.30;99.90;;;;;;5041284;28;20666;-82
2022/09/28 01:07:37;;;;;;;0.33;0.27;;;9.30;99.90;;;;;;5042397;28;20623;-82
2022/09/28 01:10:05;;;;;;;0.50;0.43;;;9.30;99.90;;;;;;5040674;28;20842;-84
2022/09/28 01:12:32;;;;;;;0.40;0.40;;;9.30;99.90;;;;;;5038895;28;20790;-82
2022/09/28 01:15:00;;;;;;;0.40;0.40;;;9.30;99.90;;;;;;5040017;28;20615;-82
2022/09/28 01:17:36;;;;;;;0.80;0.70;;;9.40;99.90;;;;;;5038034;28;20618;-81
2022/09/28 01:20:27;;;;;;;0.30;0.20;;;9.40;99.90;;;;;;5042957;28;20698;-81
2022/09/28 01:23:42;;;;;;;0.50;0.40;;;9.40;99.90;;;;;;5042270;28;20599;-82
2022/09/28 01:26:45;;;;;;;0.40;0.30;;;9.40;99.90;;;;;;4949868;29;20684;-81
2022/09/28 01:29:19;;;;;;;1.50;0.50;;;9.30;99.90;;;;;;5027269;28;20627;-81
2022/09/28 01:31:51;;;;;;;0.40;0.20;;;9.40;99.90;;;;;;5041277;28;21290;-82
2022/09/28 01:34:24;;;;;;;1.60;1.50;;;9.40;99.90;;;;;;5040765;28;20630;-81
2022/09/28 01:36:55;;;;;;;0.60;0.37;;;9.40;99.90;;;;;;5041269;28;20634;-81
2022/09/28 01:39:28;;;;;;;0.50;0.47;;;9.40;99.90;;;;;;5040782;28;20624;-81
2022/09/28 01:41:59;;;;;;;0.40;0.30;;;9.40;99.90;;;;;;5040658;28;20642;-81
2022/09/28 01:44:29;;;;;;;0.40;0.40;;;9.40;99.90;;;;;;5038988;28;20994;-82
2022/09/28 01:47:03;;;;;;;0.67;0.20;;;9.50;99.90;;;;;;5040840;28;20618;-82
2022/09/28 01:49:35;;;;;;;0.30;0.20;;;9.50;99.90;;;;;;5039918;28;20654;-81
2022/09/28 01:52:06;;;;;;;0.40;0.30;;;9.50;99.90;;;;;;5039126;28;20686;-82
2022/09/28 01:54:38;;;;;;;0.40;0.40;;;9.50;99.90;;;;;;5038900;28;20642;-82
2022/09/28 01:57:14;;;;;;;3.07;0.47;;;9.50;99.90;;;;;;5039291;28;20647;-82
2022/09/28 01:59:45;;;;;;;0.40;0.40;;;9.50;99.90;;;;;;5035986;28;20622;-82
2022/09/28 02:02:17;;;;;;;1.27;0.50;;;9.60;99.90;;;;;;5036536;28;20638;-83
2022/09/28 02:04:49;;;;;;;0.30;0.10;;;9.50;99.90;;;;;;5015200;28;20609;-82
2022/09/28 02:07:21;;;;;;;1.30;0.60;;;9.60;99.90;;;;;;5014691;28;20608;-83
2022/09/28 02:09:56;;;;;;;0.40;0.40;;;9.60;99.90;;;;;;5030265;28;20654;-82
2022/09/28 02:12:30;;;;;;;2.00;0.47;;;9.60;99.90;;;;;;5022189;28;20654;-82
2022/09/28 02:15:06;;;;;;;4.93;0.63;;;9.70;99.90;;;;;;5030815;28;20657;-82
2022/09/28 02:17:34;;;;;;;1.17;0.90;;;9.60;99.90;;;;;;5031031;28;21197;-82
2022/09/28 02:20:01;;;;;;;0.50;0.47;;;9.70;99.90;;;;;;5031183;28;20658;-82
2022/09/28 02:22:33;;;;;;;0.30;0.30;;;9.80;99.90;;;;;;5032054;28;21044;-83
2022/09/28 02:25:06;;;;;;;0.40;0.40;;;9.70;99.90;;;;;;5030414;28;21079;-83
2022/09/28 02:27:39;;;;;;;0.50;0.30;;;9.70;99.90;;;;;;5029993;28;20615;-81
2022/09/28 02:30:08;;;;;;;2.00;0.53;;;9.70;99.90;;;;;;5030137;28;20655;-83
2022/09/28 02:32:39;;;;;;;0.47;0.40;;;9.80;99.90;;;;;;5029771;28;20643;-82
2022/09/28 02:35:09;;;;;;;0.60;0.47;;;9.70;99.90;;;;;;5029525;28;20654;-81
2022/09/28 02:37:36;;;;;;;0.30;0.30;;;9.70;99.90;;;;;;5030232;28;20719;-83
2022/09/28 02:40:04;;;;;;;3.60;1.07;;;9.80;99.90;;;;;;5031158;28;20710;-82
2022/09/28 02:42:42;;;;;;;1.57;0.93;;;9.80;99.90;;;;;;5033622;28;20615;-83
2022/09/28 02:45:20;;;;;;;0.70;0.70;;;9.80;99.90;;;;;;5031930;28;20631;-81
2022/09/28 02:48:02;;;;;;;0.30;0.23;;;9.80;99.90;;;;;;5035778;28;21035;-82
2022/09/28 02:50:39;;;;;;;0.47;0.27;;;9.90;99.90;;;;;;5037014;28;20677;-83
2022/09/28 02:53:41;;;;;;;1.10;0.60;;;9.90;99.90;;;;;;5037420;28;20746;-81
2022/09/28 02:56:22;;;;;;;2.70;0.80;;;9.80;99.90;;;;;;5025760;28;21252;-83
2022/09/28 02:58:59;;;;;;;0.50;0.50;;;9.80;99.90;;;;;;5042094;28;20642;-82
2022/09/28 03:01:32;;;;;;;0.40;0.40;;;9.80;99.90;;;;;;5042580;28;20676;-82
2022/09/28 03:04:09;;;;;;;0.47;0.47;;;9.80;99.90;;;;;;5028355;28;20665;-82
2022/09/28 03:06:45;;;;;;;1.03;0.40;;;9.80;99.90;;;;;;5025115;28;20644;-82
2022/09/28 03:09:18;;;;;;;0.50;0.50;;;9.80;99.90;;;;;;5033322;28;20654;-81
2022/09/28 03:11:48;;;;;;;0.77;0.60;;;9.70;99.90;;;;;;5043836;28;20819;-83
2022/09/28 03:14:18;;;;;;;0.40;0.40;;;9.70;99.90;;;;;;5042964;28;20678;-82
2022/09/28 03:16:45;;;;;;;0.40;0.40;;;9.80;99.90;;;;;;5044082;28;20619;-82
2022/09/28 03:19:12;;;;;;;0.50;0.30;;;9.80;99.90;;;;;;5042287;28;20627;-82
2022/09/28 03:21:40;;;;;;;1.03;1.03;;;9.80;99.90;;;;;;5042137;28;20626;-82
2022/09/28 03:24:09;;;;;;;0.47;0.47;;;9.80;99.90;;;;;;5042656;28;20981;-82
2022/09/28 03:26:37;;;;;;;11.50;1.60;;;9.80;99.90;;;;;;5042758;28;20629;-82
2022/09/28 03:29:04;;;;;;;0.57;0.40;;;9.80;99.90;;;;;;5042401;28;20650;-81
2022/09/28 03:31:33;;;;;;;1.90;0.60;;;9.80;99.90;;;;;;5041661;28;20651;-82
2022/09/28 03:34:00;;;;;;;0.50;0.30;;;9.80;99.90;;;;;;5041905;28;20781;-81
2022/09/28 03:36:27;;;;;;;0.50;0.40;;;9.80;99.90;;;;;;5041874;28;20662;-84
2022/09/28 03:38:55;;;;;;;3.80;0.57;;;9.80;99.90;;;;;;5043416;28;20693;-81
2022/09/28 03:41:23;;;;;;;0.97;0.47;;;9.80;99.90;;;;;;5040367;28;20669;-81
2022/09/28 03:43:51;;;;;;;0.33;0.33;;;9.90;99.90;;;;;;5038720;28;20693;-81
2022/09/28 03:46:17;;;;;;;0.43;0.40;;;9.80;99.90;;;;;;5035141;28;20647;-81
2022/09/28 03:48:46;;;;;;;0.70;0.50;;;9.80;99.90;;;;;;5034775;28;21130;-80
2022/09/28 03:51:13;;;;;;;0.40;0.40;;;9.80;99.90;;;;;;5032100;28;20976;-81
2022/09/28 03:53:41;;;;;;;0.40;0.40;;;9.80;99.90;;;;;;5030292;28;21126;-80
2022/09/28 03:56:11;;;;;;;1.20;1.10;;;9.80;99.90;;;;;;5032905;28;21061;-81
2022/09/28 03:58:38;;;;;;;0.40;0.37;;;9.80;99.90;;;;;;5026298;28;20685;-81
2022/09/28 04:01:07;;;;;;;0.50;0.30;;;9.80;99.90;;;;;;5030868;28;20626;-80
2022/09/28 04:03:34;;;;;;;0.87;0.87;;;9.90;99.90;;;;;;5019595;28;20622;-80
2022/09/28 04:06:02;;;;;;;0.70;0.70;;;9.90;99.90;;;;;;5010000;28;20600;-81
2022/09/28 04:08:29;;;;;;;0.40;0.30;;;9.80;99.90;;;;;;5012512;28;20652;-81
2022/09/28 04:10:57;;;;;;;0.63;0.60;;;9.80;99.90;;;;;;5030039;28;20619;-81
2022/09/28 04:13:24;;;;;;;0.33;0.30;;;9.70;99.90;;;;;;5029333;28;20713;-81
2022/09/28 04:15:55;;;;;;;0.40;0.40;;;9.60;99.90;;;;;;5029890;28;20723;-82
2022/09/28 04:18:23;;;;;;;0.40;0.40;;;9.60;99.90;;;;;;5029731;28;20600;-81
2022/09/28 04:20:58;;;;;;;0.43;0.30;;;9.50;99.90;;;;;;5030209;28;20619;-81
2022/09/28 04:23:27;;;;;;;0.30;0.20;;;9.50;99.90;;;;;;5029908;28;21421;-81
2022/09/28 04:25:54;;;;;;;0.40;0.40;;;9.40;99.90;;;;;;5028248;28;20628;-82
2022/09/28 04:31:16;;;;;;;0.60;0.40;;;9.30;99.90;;;;;;5017285;28;20661;-82
2022/09/28 04:33:43;;;;;;;0.40;0.40;;;9.20;99.90;;;;;;5028050;28;20671;-82
2022/09/28 04:36:10;;;;;;;0.53;0.50;;;9.20;99.90;;;;;;5027732;28;20645;-82
2022/09/28 04:38:39;;;;;;;0.30;0.10;;;9.20;99.90;;;;;;5019319;28;20626;-81
2022/09/28 04:41:06;;;;;;;0.40;0.37;;;9.20;99.90;;;;;;5019741;28;20624;-80
2022/09/28 04:43:33;;;;;;;0.30;0.23;;;9.20;99.90;;;;;;5019282;28;20623;-81
2022/09/28 04:46:01;;;;;;;0.40;0.40;;;9.10;99.90;;;;;;5021770;28;20619;-81
2022/09/28 04:48:29;;;;;;;1.73;0.90;;;9.10;99.90;;;;;;5019925;28;20615;-81
2022/09/28 04:50:57;;;;;;;0.60;0.60;;;9.10;99.90;;;;;;5019824;28;21271;-81
2022/09/28 04:53:25;;;;;;;1.60;1.00;;;9.00;99.90;;;;;;5019359;28;21076;-79
2022/09/28 04:55:58;;;;;;;0.53;0.53;;;9.10;99.90;;;;;;5017591;28;20625;-79
2022/09/28 04:58:25;;;;;;;1.00;0.60;;;9.00;99.90;;;;;;5017702;28;20642;-80
2022/09/28 05:00:53;;;;;;;2.73;1.70;;;9.00;99.90;;;;;;5028670;28;20625;-79
2022/09/28 05:03:21;;;;;;;3.60;1.30;;;9.00;99.90;;;;;;5018604;28;20640;-79
2022/09/28 05:05:48;;;;;;;3.23;0.70;;;8.90;99.90;;;;;;5026114;28;20685;-81
2022/09/28 05:08:15;;;;;;;1.90;0.73;;;8.90;99.90;;;;;;5029259;28;20631;-80
2022/09/28 05:10:42;;;;;;;0.30;0.20;;;8.90;99.90;;;;;;5028270;28;20948;-79
2022/09/28 05:13:12;;;;;;;0.73;0.40;;;8.90;99.90;;;;;;5028572;28;21247;-81
2022/09/28 05:15:40;;;;;;;5.13;0.87;;;8.90;99.90;;;;;;5027085;28;20624;-80
2022/09/28 05:18:08;;;;;;;0.40;0.30;;;8.80;99.90;;;;;;5028135;28;20653;-79
2022/09/28 05:20:40;;;;;;;0.33;0.27;;;8.80;99.90;;;;;;5029042;28;20630;-79
2022/09/28 05:23:09;;;;;;;0.30;0.20;;;8.80;99.90;;;;;;5028928;28;20983;-80
2022/09/28 05:25:36;;;;;;;0.30;0.20;;;8.90;99.90;;;;;;5027989;28;21231;-81
2022/09/28 05:28:03;;;;;;;0.60;0.30;;;8.80;99.90;;;;;;5028446;28;21212;-81
2022/09/28 05:30:31;;;;;;;0.73;0.57;;;8.70;99.90;;;;;;5028409;28;20709;-82
2022/09/28 05:32:58;;;;;;;0.40;0.40;;;8.70;99.90;;;;;;5028868;28;20710;-81
2022/09/28 05:35:25;;;;;;;0.83;0.40;;;8.80;99.90;;;;;;5027632;28;20742;-82
2022/09/28 05:37:51;;;;;;;0.83;0.67;;;8.80;99.90;;;;;;5028736;28;20620;-81
2022/09/28 05:40:18;;;;;;;0.83;0.50;;;8.80;99.90;;;;;;5029212;28;20718;-82
2022/09/28 05:42:45;;;;;;;0.80;0.53;;;8.80;99.90;;;;;;5028643;28;20623;-81
2022/09/28 05:45:12;;;;;;;1.13;0.67;;;8.80;99.90;;;;;;5027162;28;20627;-81
2022/09/28 05:47:42;;;;;;;0.50;0.50;;;8.90;99.90;;;;;;5028957;28;20634;-81
2022/09/28 05:50:10;;;;;;;0.40;0.37;;;8.80;99.90;;;;;;5025173;28;20627;-81
2022/09/28 05:52:37;;;;;;;0.30;0.20;;;8.80;99.90;;;;;;5027607;28;20620;-81
2022/09/28 05:55:05;;;;;;;0.60;0.33;;;8.80;99.90;;;;;;5028224;28;20663;-81
2022/09/28 05:57:32;;;;;;;0.43;0.43;;;8.80;99.90;;;;;;5028323;28;20631;-81
2022/09/28 05:59:59;;;;;;;0.50;0.40;;;8.80;99.90;;;;;;5028205;28;20631;-81
2022/09/28 06:02:25;;;;;;;0.60;0.43;;;8.80;99.90;;;;;;5025707;28;20615;-81
2022/09/28 06:04:54;;;;;;;0.47;0.33;;;8.90;99.90;;;;;;5024159;28;20743;-81
2022/09/28 06:07:22;;;;;;;0.73;0.40;;;8.80;99.90;;;;;;5018056;28;20655;-81
2022/09/28 06:09:49;;;;;;;1.70;0.50;;;8.80;99.90;;;;;;5019165;28;20679;-81
2022/09/28 06:12:15;;;;;;;1.83;0.83;;;8.80;99.90;;;;;;5019170;28;20632;-82
2022/09/28 06:14:42;;;;;;;2.10;0.90;;;8.90;99.90;;;;;;5015455;28;20670;-81
2022/09/28 06:17:09;;;;;;;0.63;0.63;;;8.90;99.90;;;;;;5025243;28;20623;-81
2022/09/28 06:19:36;;;;;;;0.40;0.20;;;8.90;99.90;;;;;;5028311;28;20619;-81
2022/09/28 06:22:04;;;;;;;0.50;0.37;;;8.90;99.90;;;;;;5028460;28;20623;-81
2022/09/28 06:24:31;;;;;;;0.70;0.50;;;8.80;99.90;;;;;;5027835;28;20619;-81
2022/09/28 06:26:58;;;;;;;0.63;0.63;;;8.90;99.90;;;;;;5029216;28;20726;-81
2022/09/28 06:29:25;;;;;;;0.83;0.57;;;8.90;99.90;;;;;;5029901;28;21309;-80
2022/09/28 06:31:51;;;;;;;0.50;0.50;;;8.90;99.90;;;;;;5031062;28;20976;-80
2022/09/28 06:34:20;;;;;;;0.47;0.43;;;9.00;99.90;;;;;;5029462;28;20671;-81
2022/09/28 06:36:47;;;;;;;1.77;0.47;;;9.00;99.90;;;;;;5021740;28;20667;-80
2022/09/28 06:39:15;;;;;;;0.90;0.83;;;9.00;99.90;;;;;;5009434;28;20783;-81
2022/09/28 06:41:43;;;;;;;0.30;0.20;;;9.00;99.90;;;;;;5009590;28;20609;-80
2022/09/28 06:44:09;;;;;;;1.07;0.40;;;9.00;99.90;;;;;;5012289;28;20632;-80
2022/09/28 06:46:38;;;;;;;0.67;0.43;;;9.00;99.90;;;;;;5028832;28;20627;-80
2022/09/28 06:49:05;;;;;;;0.47;0.43;;;9.20;99.90;;;;;;5028656;28;20639;-80
2022/09/28 06:51:32;;;;;;;0.60;0.60;;;9.10;99.90;;;;;;5028077;28;20635;-80
2022/09/28 06:53:59;;;;;;;0.70;0.60;;;10.40;99.90;;;;;;5027787;28;20780;-80
2022/09/28 06:56:27;;;;;;;0.50;0.40;;;9.10;99.90;;;;;;5028483;28;20727;-80
2022/09/28 06:58:54;;;;;;;0.70;0.70;;;9.10;99.90;;;;;;5017029;28;20624;-80
2022/09/28 07:01:21;;;;;;;0.50;0.47;;;9.20;99.90;;;;;;5007910;28;20628;-81
2022/09/28 07:03:48;;;;;;;0.90;0.90;;;9.20;99.90;;;;;;5020267;28;20623;-81
2022/09/28 07:06:14;;;;;;;1.17;1.07;;;9.20;99.90;;;;;;5012498;28;20840;-80
2022/09/28 07:08:41;;;;;;;0.70;0.70;;;9.20;99.90;;;;;;5032141;28;20623;-81
2022/09/28 07:11:08;;;;;;;1.50;1.17;;;9.20;99.90;;;;;;5031234;28;21059;-81
2022/09/28 07:13:36;;;;;;;0.40;0.27;;;9.30;99.90;;;;;;5028743;28;21170;-81
2022/09/28 07:16:03;;;;;;;0.73;0.73;;;9.30;99.90;;;;;;5026392;28;20666;-80
2022/09/28 07:18:30;;;;;;;0.70;0.40;;;9.20;99.90;;;;;;5028755;28;20623;-80
2022/09/28 07:20:58;;;;;;;0.57;0.57;;;9.20;99.90;;;;;;5029227;28;21247;-81
2022/09/28 07:23:26;;;;;;;0.70;0.60;;;9.20;99.90;;;;;;5030968;28;20726;-80
2022/09/28 07:25:53;;;;;;;1.37;0.50;;;9.10;99.90;;;;;;5029749;28;20638;-80
2022/09/28 07:28:20;;;;;;;0.40;0.30;;;9.30;99.90;;;;;;5032622;28;20619;-80
2022/09/28 07:30:48;;;;;;;0.90;0.60;;;9.30;99.90;;;;;;5033563;28;20646;-80
2022/09/28 07:33:16;;;;;;;0.37;0.33;;;9.40;99.90;;;;;;5031920;28;20627;-80
2022/09/28 07:35:51;;;;;;;1.33;1.03;;;9.40;99.90;;;;;;5024973;28;20667;-81
2022/09/28 07:38:18;;;;;;;0.43;0.40;;;9.40;99.90;;;;;;5026751;28;20713;-81
2022/09/28 07:43:33;;;;;;;1.83;1.73;;;10.20;99.90;;;;;;5031220;28;20638;-81
2022/09/28 07:46:01;;;;;;;1.53;1.43;;;9.40;99.90;;;;;;5028456;28;20626;-81
2022/09/28 07:48:36;;;;;;;0.50;0.30;;;9.40;99.90;;;;;;5030326;28;20678;-81
2022/09/28 07:51:04;;;;;;;0.73;0.73;;;9.50;99.90;;;;;;5030553;28;20630;-81
2022/09/28 07:53:39;;;;;;;0.83;0.60;;;9.50;99.90;;;;;;5030312;28;20638;-82
2022/09/28 07:56:58;;;;;;;0.40;0.40;;;9.40;99.90;;;;;;5028837;28;20692;-84
2022/09/28 08:03:48;;;;;;;0.70;0.70;;;9.60;99.90;;;;;;4951898;28;20646;-82
2022/09/28 08:07:14;;;;;;;0.40;0.37;;;9.40;99.90;;;;;;4977143;28;20634;-82
2022/09/28 08:13:29;;;;;;;1.30;1.17;;;9.70;99.90;;;;;;4979593;28;20621;-82
2022/09/28 08:16:10;;;;;;;0.80;0.47;;;9.60;99.90;;;;;;5020171;28;20674;-83
2022/09/28 08:19:12;;;;;;;0.70;0.70;;;9.70;99.90;;;;;;5020288;28;20651;-84
2022/09/28 08:21:46;;;;;;;1.13;0.57;;;9.60;99.90;;;;;;5012092;28;20714;-82
2022/09/28 08:28:56;;;;;;;0.70;0.57;;;9.50;99.90;;;;;;4997461;28;20734;-83
2022/09/28 08:32:19;;;;;;;1.53;0.67;;;9.70;99.90;;;;;;5029261;28;20633;-83
2022/09/28 08:35:14;;;;;;;1.63;0.70;;;9.60;99.90;;;;;;5018037;28;20663;-82
2022/09/28 08:38:20;;;;;;;0.70;0.70;;;9.60;99.90;;;;;;5027374;28;20646;-82
2022/09/28 08:41:41;;;;;;;;;;;;;;;;;;;;;
2022/09/28 08:50:53;;;;;;;6.10;1.63;;;9.40;99.90;;;;;;5012051;28;20629;-83
2022/09/28 08:53:35;;;;;;;1.37;1.00;;;9.80;99.90;;;;;;5022208;28;20631;-83
2022/09/28 08:56:07;;;;;;;0.40;0.40;;;9.90;99.90;;;;;;5022758;28;20777;-82
2022/09/28 08:58:37;;;;;;;0.80;0.80;;;9.90;99.90;;;;;;5016953;28;20619;-80
2022/09/28 09:01:07;;;;;;;0.60;0.30;;;9.90;99.90;;;;;;5028924;28;20635;-80
2022/09/28 09:03:38;;;;;;;1.23;0.87;;;10.00;99.90;;;;;;5034339;28;20673;-80
2022/09/28 09:06:18;;;;;;;0.60;0.60;;;10.00;99.90;;;;;;5024151;28;20718;-79
2022/09/28 09:08:57;;;;;;;0.50;0.50;;;10.10;99.90;;;;;;5029053;28;20662;-81
2022/09/28 09:11:47;;;;;;;1.40;1.20;;;10.20;99.90;;;;;;5017987;28;20627;-80
2022/09/28 09:14:43;;;;;;;0.67;0.50;;;10.20;99.90;;;;;;5028615;28;20984;-81
2022/09/28 09:17:22;;;;;;;0.70;0.70;;;10.30;99.90;;;;;;5027732;28;20619;-80
2022/09/28 09:19:54;;;;;;;1.27;0.77;;;10.40;99.90;;;;;;5028233;28;20627;-81
2022/09/28 09:22:36;;;;;;;0.43;0.43;;;10.30;99.90;;;;;;5029171;28;20626;-79
2022/09/28 09:25:16;;;;;;;11.63;0.90;;;10.30;99.90;;;;;;5028347;28;20685;-79
2022/09/28 09:27:58;;;;;;;1.40;0.90;;;10.30;99.90;;;;;;5028942;28;20623;-79
2022/09/28 09:30:26;;;;;;;2.20;1.77;;;10.20;99.90;;;;;;5027626;28;20663;-82
2022/09/28 09:33:07;;;;;;;1.27;0.70;;;10.10;99.90;;;;;;5028397;28;20623;-80
2022/09/28 09:36:10;;;;;;;2.27;1.87;;;10.10;99.90;;;;;;5028315;28;20658;-79
2022/09/28 09:38:50;;;;;;;3.07;0.90;;;10.10;99.90;;;;;;5027894;28;21506;-79
2022/09/28 09:41:29;;;;;;;1.00;0.93;;;10.20;99.90;;;;;;5032307;28;21199;-79
2022/09/28 09:44:38;;;;;;;1.27;1.20;;;10.20;99.90;;;;;;5028255;28;21325;-82
2022/09/28 09:47:10;;;;;;;2.00;1.80;;;10.10;99.90;;;;;;5027055;28;20626;-79
2022/09/28 09:49:42;;;;;;;2.57;1.90;;;10.20;99.90;;;;;;5023417;28;20619;-79
2022/09/28 09:52:17;;;;;;;1.17;1.07;;;10.30;99.90;;;;;;5021873;28;20624;-79
2022/09/28 09:54:49;;;;;;;1.20;1.10;;;10.30;99.90;;;;;;5034972;28;20656;-84
2022/09/28 09:57:20;;;;;;;1.23;0.93;;;10.40;99.90;;;;;;5015003;28;20655;-84
2022/09/28 09:59:50;;;;;;;0.97;0.60;;;10.40;99.90;;;;;;5026165;28;20623;-84
2022/09/28 10:02:23;;;;;;;2.20;1.00;;;10.50;99.90;;;;;;5028406;28;20615;-82
2022/09/28 10:04:54;;;;;;;1.03;0.87;;;10.50;99.90;;;;;;5012478;28;20618;-81
2022/09/28 10:07:24;;;;;;;1.53;1.00;;;10.60;99.90;;;;;;5027798;28;21198;-82
2022/09/28 10:09:58;;;;;;;0.70;0.70;;;10.60;99.90;;;;;;5027515;28;20731;-82
2022/09/28 10:12:25;;;;;;;1.43;1.10;;;10.60;99.90;;;;;;5028452;28;20729;-81
2022/09/28 10:14:55;;;;;;;0.70;0.70;;;10.70;99.90;;;;;;5027739;28;21258;-82
2022/09/28 10:17:26;;;;;;;1.53;1.43;;;10.70;99.90;;;;;;5014536;28;21011;-82
2022/09/28 10:19:55;;;;;;;1.33;0.97;;;10.80;99.90;;;;;;5023953;28;20723;-81
2022/09/28 10:22:26;;;;;;;0.60;0.60;;;10.90;99.90;;;;;;5027825;28;20697;-81
2022/09/28 10:24:57;;;;;;;1.00;0.73;;;10.90;99.90;;;;;;5028106;28;20678;-82
2022/09/28 10:27:27;;;;;;;1.17;0.50;;;10.90;99.90;;;;;;5027859;28;20730;-82
2022/09/28 10:29:56;;;;;;;3.17;2.23;;;10.90;99.90;;;;;;5027917;28;20662;-81
2022/09/28 10:32:25;;;;;;;1.07;0.60;;;10.90;99.90;;;;;;5028127;28;20615;-81
2022/09/28 10:34:53;;;;;;;1.10;0.63;;;10.80;99.90;;;;;;5027002;28;20651;-81
2022/09/28 10:37:23;;;;;;;0.50;0.50;;;10.80;99.90;;;;;;5027411;28;20677;-81
2022/09/28 10:39:53;;;;;;;2.30;0.90;;;11.00;99.90;;;;;;5028155;28;20722;-81
2022/09/28 10:42:24;;;;;;;0.93;0.70;;;11.00;99.90;;;;;;5027939;28;21251;-81
2022/09/28 10:44:55;;;;;;;0.60;0.60;;;11.00;99.90;;;;;;5021302;28;20625;-82
2022/09/28 10:47:24;;;;;;;0.60;0.60;;;11.00;99.90;;;;;;5020103;28;20647;-81
2022/09/28 10:49:53;;;;;;;1.90;0.90;;;11.10;99.90;;;;;;5027735;28;21276;-81
2022/09/28 10:52:35;;;;;;;0.70;0.60;;;11.20;99.90;;;;;;5028311;28;20627;-82
2022/09/28 10:55:03;;;;;;;0.60;0.60;;;11.20;99.90;;;;;;5027306;28;20655;-81
2022/09/28 10:57:36;;;;;;;1.17;0.90;;;11.20;99.90;;;;;;5027276;28;20623;-82
2022/09/28 11:00:07;;;;;;;0.80;0.80;;;11.20;99.90;;;;;;5027680;28;20638;-81
2022/09/28 11:02:36;;;;;;;3.23;1.23;;;11.30;99.90;;;;;;5029378;28;20618;-81
2022/09/28 11:05:05;;;;;;;0.90;0.60;;;11.40;99.90;;;;;;5031225;28;20631;-81
2022/09/28 11:07:34;;;;;;;1.43;1.33;;;11.40;99.90;;;;;;5024361;28;20626;-81
2022/09/28 11:10:02;;;;;;;0.70;0.67;;;11.40;99.90;;;;;;5021016;28;20634;-83
2022/09/28 11:12:38;;;;;;;0.50;0.50;;;11.40;99.90;;;;;;5020124;28;20652;-82
2022/09/28 11:15:07;;;;;;;1.00;0.90;;;11.40;99.90;;;;;;5022315;28;20655;-81
2022/09/28 11:17:38;;;;;;;1.53;1.13;;;11.40;99.90;;;;;;5025025;28;21328;-81
2022/09/28 11:20:36;;;;;;;0.80;0.50;;;11.40;99.90;;;;;;5020815;28;20624;-80
2022/09/28 11:23:20;;;;;;;5.47;1.57;;;11.30;99.90;;;;;;5020534;28;20727;-81
2022/09/28 11:26:18;;;;;;;1.30;0.70;;;11.30;99.90;;;;;;5022960;28;20634;-84
2022/09/28 11:28:51;;;;;;;1.13;1.00;;;11.40;99.90;;;;;;5021514;28;20623;-81
2022/09/28 11:31:26;;;;;;;6.17;0.87;;;11.50;99.90;;;;;;5020883;28;20623;-81
2022/09/28 11:34:05;;;;;;;0.87;0.80;;;11.50;99.90;;;;;;5023302;28;20965;-82
2022/09/28 11:36:49;;;;;;;1.13;0.77;;;11.40;99.90;;;;;;5020442;28;20654;-82
2022/09/28 11:39:26;;;;;;;1.43;1.03;;;11.60;99.90;;;;;;5021332;28;21164;-82
2022/09/28 11:42:08;;;;;;;1.93;1.17;;;11.60;99.90;;;;;;5027553;28;20639;-80
2022/09/28 11:44:45;;;;;;;0.50;0.50;;;11.60;99.90;;;;;;5018384;28;20669;-80
2022/09/28 11:47:37;;;;;;;0.87;0.87;;;11.70;99.90;;;;;;5028928;28;20626;-81
2022/09/28 11:50:13;;;;;;;0.67;0.67;;;11.80;99.90;;;;;;5028264;28;20645;-81
2022/09/28 11:52:51;;;;;;;1.20;1.10;;;11.80;99.90;;;;;;5028760;28;20654;-84
2022/09/28 11:55:28;;;;;;;0.57;0.57;;;11.90;99.90;;;;;;5030014;28;20651;-82
2022/09/28 11:58:01;;;;;;;0.63;0.63;;;11.90;99.10;;;;;;5029096;28;21032;-81
2022/09/28 12:00:34;;;;;;;0.90;0.50;;;11.80;99.40;;;;;;5022982;28;20641;-82
2022/09/28 12:03:07;;;;;;;1.87;0.80;;;11.90;99.90;;;;;;5025044;28;20624;-81
2022/09/28 12:05:38;;;;;;;2.23;2.13;;;11.90;99.90;;;;;;5017960;28;20637;-81
2022/09/28 12:08:09;;;;;;;0.40;0.40;;;11.90;99.90;;;;;;5029076;28;20627;-81
2022/09/28 12:10:40;;;;;;;0.63;0.60;;;11.90;99.00;;;;;;5012420;28;20726;-80
2022/09/28 12:13:14;;;;;;;1.13;1.03;;;11.80;99.80;;;;;;5016976;28;20627;-80
2022/09/28 12:15:49;;;;;;;0.63;0.63;;;11.90;98.70;;;;;;5023053;28;20658;-80
2022/09/28 12:18:22;;;;;;;1.23;0.80;;;11.90;98.40;;;;;;5009979;28;20631;-80
2022/09/28 12:20:53;;;;;;;2.40;0.73;;;11.90;97.80;;;;;;5028645;28;20622;-81
2022/09/28 12:23:25;;;;;;;0.67;0.60;;;11.90;97.70;;;;;;5029705;28;20617;-81
2022/09/28 12:25:58;;;;;;;0.50;0.50;;;11.90;99.10;;;;;;5028933;28;20670;-80
2022/09/28 12:28:33;;;;;;;0.60;0.43;;;12.00;99.80;;;;;;5014797;28;20762;-80
2022/09/28 12:31:28;;;;;;;1.90;0.77;;;11.90;96.40;;;;;;5029638;28;20631;-80
2022/09/28 12:34:01;;;;;;;0.70;0.70;;;11.90;97.70;;;;;;5029338;28;20621;-81
2022/09/28 12:36:49;;;;;;;2.60;0.73;;;12.00;97.00;;;;;;5028224;28;20666;-80
2022/09/28 12:39:37;;;;;;;0.80;0.70;;;12.00;96.80;;;;;;5019714;28;20623;-81
2022/09/28 12:42:30;;;;;;;1.03;0.70;;;12.00;97.50;;;;;;5029648;28;20621;-80
2022/09/28 12:45:17;;;;;;;0.50;0.50;;;12.00;97.80;;;;;;5020006;28;20612;-81
2022/09/28 12:48:10;;;;;;;0.50;0.50;;;12.10;98.20;;;;;;5029042;28;20696;-80
2022/09/28 12:50:53;;;;;;;0.83;0.83;;;12.10;98.50;;;;;;5029717;28;20973;-80
2022/09/28 12:53:41;;;;;;;0.40;0.33;;;12.10;96.40;;;;;;5029380;28;20633;-80
2022/09/28 12:56:17;;;;;;;1.67;1.27;;;12.10;96.10;;;;;;5028118;28;20656;-80
2022/09/28 12:59:00;;;;;;;0.67;0.67;;;12.00;95.70;;;;;;5028659;28;21181;-79
2022/09/28 13:01:53;;;;;;;0.30;0.30;;;12.60;96.10;;;;;;5027997;28;20626;-80
2022/09/28 13:04:44;;;;;;;0.50;0.50;;;12.10;97.40;;;;;;5028302;28;20619;-81
2022/09/28 13:07:30;;;;;;;0.47;0.47;;;12.20;97.40;;;;;;5028257;28;20630;-80
2022/09/28 13:10:15;;;;;;;0.93;0.70;;;12.40;96.70;;;;;;5028952;28;20615;-79
2022/09/28 13:13:00;;;;;;;0.50;0.43;;;12.50;96.90;;;;;;5028864;28;21173;-79
2022/09/28 13:15:39;;;;;;;0.90;0.90;;;12.30;97.50;;;;;;5027804;28;20642;-80
2022/09/28 13:18:17;;;;;;;0.60;0.50;;;12.60;96.90;;;;;;5011452;28;20648;-80
2022/09/28 13:20:55;;;;;;;0.60;0.60;;;12.40;95.10;;;;;;5009231;28;20719;-79
2022/09/28 13:23:25;;;;;;;0.60;0.43;;;12.40;94.80;;;;;;5009071;28;20762;-80
2022/09/28 13:25:57;;;;;;;2.00;0.50;;;12.40;95.00;;;;;;5024419;28;20634;-80
2022/09/28 13:28:26;;;;;;;1.87;1.07;;;12.40;94.60;;;;;;5028597;28;20726;-80
2022/09/28 13:30:55;;;;;;;0.70;0.70;;;12.40;94.30;;;;;;5028697;28;20633;-79
2022/09/28 13:33:30;;;;;;;0.70;0.63;;;12.30;93.90;;;;;;5028823;28;20625;-79
2022/09/28 13:35:58;;;;;;;0.80;0.80;;;12.40;95.10;;;;;;5027423;28;20672;-79
2022/09/28 13:38:48;;;;;;;0.50;0.50;;;12.30;93.50;;;;;;5028166;28;20633;-79
2022/09/28 13:41:27;;;;;;;1.67;0.80;;;12.30;93.90;;;;;;5019772;28;21028;-81
2022/09/28 13:44:31;;;;;;;0.80;0.70;;;12.30;92.50;;;;;;5020586;28;20734;-79
2022/09/28 13:47:16;;;;;;;0.70;0.70;;;12.20;93.20;;;;;;5018453;28;20730;-80
2022/09/28 13:49:55;;;;;;;0.50;0.50;;;12.20;94.20;;;;;;5023768;28;21344;-80
2022/09/28 13:52:34;;;;;;;6.60;0.67;;;12.30;95.10;;;;;;5027900;28;20633;-79